Time;durP1;ratioP1;P1;durP2;ratioP2;P2;SDS_P1;SDS_P2;PMS_P1;PMS_P2;Temp;Humidity;BMP_temperature;BMP_pressure;BME280_temperature;BME280_humidity;BME280_pressure;Samples;Min_cycle;Max_cycle;Signal;HPM_P1;HPM_P2
2023/03/10 00:01:20;;;;;;;0.93;0.70;;;1.70;99.90;;;;;;4839966;29;20053;-57
2023/03/10 00:03:50;;;;;;;0.68;0.50;;;1.70;99.90;;;;;;4831461;29;20418;-55
2023/03/10 00:06:20;;;;;;;0.45;0.40;;;1.70;99.90;;;;;;4832520;29;20058;-56
2023/03/10 00:08:48;;;;;;;1.23;0.60;;;1.80;99.90;;;;;;4811052;29;20396;-56
2023/03/10 00:11:17;;;;;;;1.63;0.93;;;1.80;99.90;;;;;;4817653;29;20084;-55
2023/03/10 00:13:45;;;;;;;1.05;0.60;;;1.80;99.90;;;;;;4830005;29;20391;-56
2023/03/10 00:16:18;;;;;;;0.57;0.57;;;1.80;99.90;;;;;;4839865;29;20414;-55
2023/03/10 00:18:47;;;;;;;0.50;0.43;;;1.80;99.90;;;;;;4833516;29;20478;-55
2023/03/10 00:21:21;;;;;;;0.90;0.50;;;1.80;99.90;;;;;;4839814;29;20502;-56
2023/03/10 00:23:52;;;;;;;2.00;0.50;;;1.80;99.90;;;;;;4837744;29;20418;-56
2023/03/10 00:26:20;;;;;;;1.55;0.85;;;1.80;99.90;;;;;;4838407;29;20065;-56
2023/03/10 00:28:49;;;;;;;1.33;0.70;;;1.70;99.90;;;;;;4839724;29;20399;-56
2023/03/10 00:31:19;;;;;;;1.17;0.50;;;1.70;99.90;;;;;;4828497;29;20051;-56
2023/03/10 00:33:48;;;;;;;0.82;0.40;;;1.70;99.90;;;;;;4828479;29;20050;-57
2023/03/10 00:36:21;;;;;;;1.85;0.60;;;1.70;99.90;;;;;;4839690;29;20491;-55
2023/03/10 00:38:51;;;;;;;1.52;0.77;;;1.70;99.90;;;;;;4821382;29;20059;-56
2023/03/10 00:41:25;;;;;;;0.80;0.50;;;1.70;99.90;;;;;;4817657;29;20046;-55
2023/03/10 00:43:53;;;;;;;0.60;0.52;;;1.70;99.90;;;;;;4829020;29;20049;-56
2023/03/10 00:46:24;;;;;;;1.20;0.70;;;1.70;99.90;;;;;;4832850;29;20046;-56
2023/03/10 00:48:52;;;;;;;1.42;0.70;;;1.60;99.90;;;;;;4832054;29;20049;-57
2023/03/10 00:51:21;;;;;;;0.68;0.50;;;1.70;99.90;;;;;;4839267;29;20054;-56
2023/03/10 00:53:49;;;;;;;1.40;0.75;;;1.70;99.90;;;;;;4826488;29;20054;-56
2023/03/10 00:56:20;;;;;;;0.82;0.65;;;1.70;99.90;;;;;;4838018;29;20042;-56
2023/03/10 00:58:53;;;;;;;1.02;0.50;;;1.70;99.90;;;;;;4820596;29;20085;-56
2023/03/10 01:01:36;;;;;;;1.83;0.80;;;1.70;99.90;;;;;;4817209;29;20042;-57
2023/03/10 01:04:10;;;;;;;1.55;0.93;;;1.70;99.90;;;;;;4827837;29;20050;-57
2023/03/10 01:06:38;;;;;;;0.77;0.57;;;1.80;99.90;;;;;;4823654;29;20061;-58
2023/03/10 01:09:07;;;;;;;3.35;0.50;;;1.80;99.90;;;;;;4817592;29;20042;-56
2023/03/10 01:11:36;;;;;;;0.88;0.52;;;1.80;99.90;;;;;;4820529;29;20054;-56
2023/03/10 01:14:06;;;;;;;0.57;0.55;;;1.80;99.90;;;;;;4826124;29;20630;-55
2023/03/10 01:16:34;;;;;;;1.88;0.57;;;1.80;99.90;;;;;;4838778;29;20057;-56
2023/03/10 01:19:02;;;;;;;1.83;0.70;;;1.80;99.90;;;;;;4828319;29;20491;-56
2023/03/10 01:21:33;;;;;;;1.60;0.50;;;1.90;99.90;;;;;;4819913;29;20403;-56
2023/03/10 01:24:01;;;;;;;0.90;0.70;;;1.80;99.90;;;;;;4825776;29;20053;-55
2023/03/10 01:26:29;;;;;;;0.50;0.40;;;1.90;99.90;;;;;;4829108;29;20051;-56
2023/03/10 01:28:57;;;;;;;0.65;0.57;;;1.90;99.90;;;;;;4832074;29;20046;-56
2023/03/10 01:31:25;;;;;;;3.05;0.90;;;1.90;99.90;;;;;;4837402;29;20518;-57
2023/03/10 01:33:53;;;;;;;0.80;0.70;;;1.90;99.90;;;;;;4836934;29;20474;-56
2023/03/10 01:36:24;;;;;;;1.20;0.50;;;1.90;99.90;;;;;;4838476;29;20045;-57
2023/03/10 01:38:54;;;;;;;1.45;0.90;;;1.80;99.90;;;;;;4822543;29;20059;-55
2023/03/10 01:41:22;;;;;;;2.35;0.88;;;1.90;99.90;;;;;;4816353;29;20046;-57
2023/03/10 01:43:52;;;;;;;6.53;1.17;;;1.90;99.90;;;;;;4828317;29;20045;-56
2023/03/10 01:46:40;;;;;;;1.38;0.77;;;1.80;99.90;;;;;;4838155;29;20046;-58
2023/03/10 01:49:13;;;;;;;0.73;0.73;;;1.80;99.90;;;;;;4828879;29;20058;-56
2023/03/10 01:51:49;;;;;;;1.10;1.00;;;1.70;99.90;;;;;;4819473;29;20046;-58
2023/03/10 01:54:23;;;;;;;2.20;0.88;;;1.60;99.90;;;;;;4812813;29;20053;-57
2023/03/10 01:56:53;;;;;;;4.25;0.73;;;1.60;99.90;;;;;;4837190;29;20050;-56
2023/03/10 01:59:22;;;;;;;0.95;0.70;;;1.60;99.90;;;;;;4832683;29;20050;-56
2023/03/10 02:01:51;;;;;;;0.90;0.70;;;1.50;99.90;;;;;;4819967;29;20046;-57
2023/03/10 02:04:41;;;;;;;2.90;1.23;;;1.50;99.90;;;;;;4829729;29;20062;-55
2023/03/10 02:07:10;;;;;;;1.23;0.77;;;1.40;99.90;;;;;;4838412;29;20120;-56
2023/03/10 02:09:43;;;;;;;2.88;1.20;;;1.30;99.90;;;;;;4822795;29;20407;-57
2023/03/10 02:12:14;;;;;;;2.58;1.30;;;1.30;99.90;;;;;;4788764;29;20081;-57
2023/03/10 02:14:43;;;;;;;;;;;1.20;99.90;;;;;;4815958;29;20496;-55
2023/03/10 02:17:15;;;;;;;2.20;1.00;;;1.20;99.90;;;;;;4801693;29;20274;-57
2023/03/10 02:20:15;;;;;;;1.17;0.75;;;1.10;99.90;;;;;;4830676;29;20047;-56
2023/03/10 02:22:43;;;;;;;2.13;1.17;;;1.00;99.90;;;;;;4819563;29;20051;-56
2023/03/10 02:25:17;;;;;;;1.60;1.23;;;1.00;99.90;;;;;;4801295;29;20238;-57
2023/03/10 02:27:46;;;;;;;4.43;2.00;;;1.00;99.90;;;;;;4805326;29;20050;-57
2023/03/10 02:30:33;;;;;;;1.40;1.20;;;1.00;99.90;;;;;;4834048;29;20057;-56
2023/03/10 02:33:05;;;;;;;1.33;0.95;;;1.00;99.90;;;;;;4830474;29;20038;-56
2023/03/10 02:35:33;;;;;;;2.22;1.70;;;1.00;99.90;;;;;;4819488;29;20066;-57
2023/03/10 02:38:05;;;;;;;1.33;0.80;;;1.00;99.90;;;;;;4826425;29;20046;-57
2023/03/10 02:40:42;;;;;;;1.85;1.15;;;1.00;99.90;;;;;;4824410;29;20046;-58
2023/03/10 02:43:29;;;;;;;4.80;1.80;;;1.00;99.90;;;;;;4821098;29;20057;-57
2023/03/10 02:46:10;;;;;;;2.08;0.80;;;1.00;99.90;;;;;;4819802;29;20062;-56
2023/03/10 02:48:42;;;;;;;2.33;1.25;;;1.00;99.90;;;;;;4821167;29;20046;-57
2023/03/10 02:51:22;;;;;;;2.38;1.00;;;1.00;99.90;;;;;;4821468;29;20526;-55
2023/03/10 02:53:51;;;;;;;2.40;1.27;;;1.00;99.90;;;;;;4821325;29;20499;-56
2023/03/10 02:56:22;;;;;;;1.92;1.13;;;1.00;99.90;;;;;;4821385;29;20054;-56
2023/03/10 02:58:50;;;;;;;2.90;1.17;;;1.00;99.90;;;;;;4820874;29;20053;-55
2023/03/10 03:01:21;;;;;;;2.05;1.40;;;1.00;99.90;;;;;;4821304;29;20051;-55
2023/03/10 03:03:49;;;;;;;3.65;2.03;;;0.90;99.90;;;;;;4817070;29;20492;-55
2023/03/10 03:06:17;;;;;;;2.75;1.55;;;1.00;99.90;;;;;;4806629;29;20050;-55
2023/03/10 03:08:45;;;;;;;1.20;0.95;;;0.90;99.90;;;;;;4822748;29;20670;-55
2023/03/10 03:11:16;;;;;;;2.33;1.58;;;0.90;99.90;;;;;;4824697;29;20062;-55
2023/03/10 03:13:44;;;;;;;3.20;1.48;;;0.90;99.90;;;;;;4824543;29;20043;-56
2023/03/10 03:16:12;;;;;;;1.80;1.30;;;0.90;99.90;;;;;;4824500;29;20062;-57
2023/03/10 03:18:41;;;;;;;;;;;0.90;99.90;;;;;;4824867;29;20053;-57
2023/03/10 03:21:15;;;;;;;4.07;1.60;;;1.00;99.90;;;;;;4824379;29;19925;-56
2023/03/10 03:23:45;;;;;;;5.40;1.98;;;1.00;99.90;;;;;;4824419;29;20057;-56
2023/03/10 03:26:23;;;;;;;2.85;1.80;;;1.00;99.90;;;;;;4809489;29;20054;-55
2023/03/10 03:28:56;;;;;;;2.22;1.50;;;1.00;99.90;;;;;;4823636;29;20070;-56
2023/03/10 03:31:28;;;;;;;3.40;1.63;;;1.00;99.90;;;;;;4809355;29;20511;-55
2023/03/10 03:34:05;;;;;;;2.45;1.45;;;1.00;99.90;;;;;;4824649;29;20046;-56
2023/03/10 03:36:33;;;;;;;2.75;1.50;;;1.00;99.90;;;;;;4824290;29;20057;-55
2023/03/10 03:39:01;;;;;;;4.78;1.90;;;1.00;99.90;;;;;;4825419;29;20053;-54
2023/03/10 03:41:32;;;;;;;5.70;1.70;;;1.00;99.90;;;;;;4823999;29;20047;-56
2023/03/10 03:44:00;;;;;;;2.13;1.27;;;1.00;99.90;;;;;;4825343;29;20137;-55
2023/03/10 03:46:28;;;;;;;3.13;0.95;;;1.00;99.90;;;;;;4823729;29;20063;-55
2023/03/10 03:48:58;;;;;;;2.47;1.13;;;1.10;99.90;;;;;;4823826;29;20051;-55
2023/03/10 03:51:26;;;;;;;1.60;1.02;;;1.10;99.90;;;;;;4823807;29;20403;-56
2023/03/10 03:53:54;;;;;;;7.03;0.88;;;1.10;99.90;;;;;;4823814;29;20052;-56
2023/03/10 03:56:22;;;;;;;1.33;0.80;;;1.10;99.90;;;;;;4823945;29;20047;-56
2023/03/10 03:58:50;;;;;;;2.85;1.05;;;1.10;99.90;;;;;;4823832;29;20047;-55
2023/03/10 04:01:18;;;;;;;1.30;0.90;;;1.10;99.90;;;;;;4823933;29;20054;-55
2023/03/10 04:03:50;;;;;;;0.65;0.47;;;1.20;99.90;;;;;;4823385;29;20049;-57
2023/03/10 04:06:18;;;;;;;0.90;0.40;;;1.10;99.90;;;;;;4825071;29;20046;-56
2023/03/10 04:08:49;;;;;;;1.20;0.65;;;1.20;99.90;;;;;;4817128;29;20487;-56
2023/03/10 04:11:17;;;;;;;0.30;0.20;;;1.20;99.90;;;;;;4816098;29;20066;-54
2023/03/10 04:13:46;;;;;;;1.15;0.20;;;1.20;99.90;;;;;;4821184;29;20525;-55
2023/03/10 04:16:15;;;;;;;0.70;0.50;;;1.20;99.90;;;;;;4822757;29;20066;-55
2023/03/10 04:18:44;;;;;;;0.55;0.28;;;1.10;99.90;;;;;;4824372;29;20058;-56
2023/03/10 04:21:14;;;;;;;0.43;0.20;;;1.20;99.90;;;;;;4812031;29;20058;-56
2023/03/10 04:23:42;;;;;;;0.77;0.40;;;1.20;99.90;;;;;;4810818;29;20067;-56
2023/03/10 04:26:16;;;;;;;1.85;0.47;;;1.20;99.90;;;;;;4823444;29;20058;-56
2023/03/10 04:28:44;;;;;;;2.20;0.40;;;1.10;99.90;;;;;;4808867;29;20062;-56
2023/03/10 04:31:18;;;;;;;4.53;0.45;;;1.20;99.90;;;;;;4805171;29;20066;-56
2023/03/10 04:33:51;;;;;;;2.83;0.47;;;1.10;99.90;;;;;;4811095;29;20077;-56
2023/03/10 04:36:19;;;;;;;0.30;0.30;;;1.10;99.90;;;;;;4823095;29;20054;-55
2023/03/10 04:38:51;;;;;;;0.90;0.55;;;1.20;99.90;;;;;;4823389;29;20407;-56
2023/03/10 04:41:21;;;;;;;1.60;0.70;;;1.10;99.90;;;;;;4822654;29;20058;-56
2023/03/10 04:43:49;;;;;;;1.85;1.02;;;1.10;99.90;;;;;;4823218;29;20053;-55
2023/03/10 04:46:21;;;;;;;1.93;0.70;;;1.10;99.90;;;;;;4823276;29;20049;-55
2023/03/10 04:48:50;;;;;;;2.47;0.90;;;1.10;99.90;;;;;;4822778;29;20294;-56
2023/03/10 04:51:19;;;;;;;3.00;1.13;;;1.00;99.90;;;;;;4822902;29;20061;-54
2023/03/10 04:53:50;;;;;;;3.38;1.13;;;1.00;99.90;;;;;;4822869;29;20043;-57
2023/03/10 04:56:18;;;;;;;5.43;1.63;;;0.90;99.90;;;;;;4823023;29;20058;-55
2023/03/10 04:58:46;;;;;;;5.13;1.98;;;0.90;99.90;;;;;;4822991;29;20055;-55
2023/03/10 05:01:15;;;;;;;3.55;2.13;;;0.90;99.90;;;;;;4822709;29;20534;-56
2023/03/10 05:03:49;;;;;;;7.13;2.40;;;0.90;99.90;;;;;;4818944;29;20038;-56
2023/03/10 05:06:20;;;;;;;5.32;2.55;;;0.80;99.90;;;;;;4822639;29;20054;-54
2023/03/10 05:09:06;;;;;;;3.88;2.80;;;0.80;99.90;;;;;;4824037;29;20062;-56
2023/03/10 05:11:34;;;;;;;6.38;3.03;;;0.80;99.90;;;;;;4822818;29;20043;-55
2023/03/10 05:14:02;;;;;;;5.78;2.90;;;0.80;99.90;;;;;;4822474;29;20050;-56
2023/03/10 05:16:31;;;;;;;4.35;1.60;;;0.90;99.90;;;;;;4822631;29;20515;-55
2023/03/10 05:18:59;;;;;;;3.95;1.77;;;0.90;99.90;;;;;;4822432;29;20046;-55
2023/03/10 05:21:29;;;;;;;3.78;1.63;;;0.80;99.90;;;;;;4822569;29;20050;-57
2023/03/10 05:23:58;;;;;;;2.47;1.35;;;0.90;99.90;;;;;;4807733;29;20513;-57
2023/03/10 05:26:26;;;;;;;5.43;1.40;;;0.80;99.90;;;;;;4821899;29;20046;-56
2023/03/10 05:28:54;;;;;;;2.40;1.10;;;0.90;99.90;;;;;;4823501;29;20046;-55
2023/03/10 05:31:29;;;;;;;3.60;1.30;;;0.80;99.90;;;;;;4822451;29;20066;-56
2023/03/10 05:34:04;;;;;;;2.08;1.05;;;0.90;99.90;;;;;;4822089;29;20038;-56
2023/03/10 05:36:32;;;;;;;2.17;1.00;;;0.80;99.90;;;;;;4822002;29;20431;-55
2023/03/10 05:39:04;;;;;;;2.65;0.90;;;0.80;99.90;;;;;;4822420;29;20038;-55
2023/03/10 05:41:36;;;;;;;1.52;0.93;;;0.80;99.90;;;;;;4822209;29;20414;-56
2023/03/10 05:44:05;;;;;;;5.23;1.07;;;0.90;99.90;;;;;;4822397;29;20042;-55
2023/03/10 05:46:34;;;;;;;1.23;0.40;;;0.80;99.90;;;;;;4822126;29;20066;-56
2023/03/10 05:49:02;;;;;;;1.20;0.60;;;0.80;99.90;;;;;;4815827;29;20402;-55
2023/03/10 05:51:30;;;;;;;5.50;0.60;;;0.80;99.90;;;;;;4819157;29;20058;-56
2023/03/10 05:54:00;;;;;;;3.95;1.15;;;0.80;99.90;;;;;;4819146;29;20039;-57
2023/03/10 05:56:29;;;;;;;1.93;1.77;;;0.70;99.90;;;;;;4818776;29;20051;-56
2023/03/10 05:59:00;;;;;;;0.95;0.47;;;0.70;99.90;;;;;;4834409;29;20294;-56
2023/03/10 06:01:30;;;;;;;3.20;0.60;;;0.70;99.90;;;;;;4837025;29;20054;-56
2023/03/10 06:03:58;;;;;;;3.97;0.47;;;0.70;99.90;;;;;;4809880;29;20038;-56
2023/03/10 06:06:26;;;;;;;2.53;1.33;;;0.70;99.90;;;;;;4816977;29;20050;-57
2023/03/10 06:08:57;;;;;;;4.75;1.05;;;0.70;99.90;;;;;;4831489;29;20046;-57
2023/03/10 06:11:24;;;;;;;1.25;0.70;;;0.70;99.90;;;;;;4820127;29;20051;-55
2023/03/10 06:13:52;;;;;;;3.30;0.68;;;0.70;99.90;;;;;;4826265;29;20050;-58
2023/03/10 06:16:20;;;;;;;3.67;1.42;;;0.70;99.90;;;;;;4815500;29;20504;-57
2023/03/10 06:18:52;;;;;;;2.40;0.88;;;0.70;99.90;;;;;;4813683;29;20050;-56
2023/03/10 06:21:20;;;;;;;1.35;1.08;;;0.70;99.90;;;;;;4815949;29;20076;-56
2023/03/10 06:23:48;;;;;;;2.30;1.02;;;0.70;99.90;;;;;;4829787;29;20046;-55
2023/03/10 06:26:16;;;;;;;1.50;1.40;;;0.70;99.90;;;;;;4819877;29;20060;-56
2023/03/10 06:28:45;;;;;;;3.83;1.40;;;0.60;99.90;;;;;;4816440;29;20054;-57
2023/03/10 06:31:21;;;;;;;3.75;1.77;;;0.70;99.90;;;;;;4836458;29;20050;-55
2023/03/10 06:33:49;;;;;;;5.07;1.10;;;0.60;99.90;;;;;;4826464;29;20057;-57
2023/03/10 06:36:19;;;;;;;1.45;1.33;;;0.60;99.90;;;;;;4811400;29;20149;-56
2023/03/10 06:38:48;;;;;;;1.80;1.38;;;0.60;99.90;;;;;;4828287;29;20379;-55
2023/03/10 06:41:16;;;;;;;2.25;1.13;;;0.60;99.90;;;;;;4821476;29;20050;-56
2023/03/10 06:43:47;;;;;;;7.38;1.50;;;0.70;99.90;;;;;;4826747;29;20515;-55
2023/03/10 06:46:15;;;;;;;4.38;1.73;;;0.60;99.90;;;;;;4815300;29;20050;-56
2023/03/10 06:48:44;;;;;;;3.58;1.27;;;0.70;99.90;;;;;;4821322;29;20050;-56
2023/03/10 06:51:18;;;;;;;3.92;1.10;;;0.60;99.90;;;;;;4819441;29;20402;-56
2023/03/10 06:53:48;;;;;;;4.30;0.80;;;0.60;99.90;;;;;;4829392;29;20491;-57
2023/03/10 06:56:18;;;;;;;1.48;1.00;;;0.60;99.90;;;;;;4818375;29;20058;-56
2023/03/10 06:58:46;;;;;;;1.88;0.82;;;0.60;99.90;;;;;;4829938;29;20057;-57
2023/03/10 07:01:33;;;;;;;0.52;0.52;;;0.60;99.90;;;;;;4833250;29;20074;-55
2023/03/10 07:04:01;;;;;;;1.35;0.50;;;0.60;99.90;;;;;;4820085;29;20061;-56
2023/03/10 07:06:29;;;;;;;1.10;0.88;;;0.60;99.90;;;;;;4816894;29;20054;-57
2023/03/10 07:08:57;;;;;;;1.92;0.77;;;0.60;99.90;;;;;;4831003;29;20050;-57
2023/03/10 07:11:25;;;;;;;2.85;1.05;;;0.60;99.90;;;;;;4816972;29;20046;-57
2023/03/10 07:13:53;;;;;;;4.75;0.65;;;0.60;99.90;;;;;;4829429;29;20051;-57
2023/03/10 07:16:21;;;;;;;1.25;0.50;;;0.60;99.90;;;;;;4815994;29;20055;-56
2023/03/10 07:18:49;;;;;;;1.20;0.93;;;0.70;99.90;;;;;;4819034;29;20051;-56
2023/03/10 07:21:19;;;;;;;1.48;1.02;;;0.70;99.90;;;;;;4816047;29;20050;-58
2023/03/10 07:23:47;;;;;;;1.50;0.73;;;0.60;99.90;;;;;;4826305;29;20073;-55
2023/03/10 07:26:17;;;;;;;1.52;0.90;;;0.70;99.90;;;;;;4817095;29;20047;-56
2023/03/10 07:28:45;;;;;;;1.25;1.00;;;1.30;99.90;;;;;;4827538;29;20050;-56
2023/03/10 07:31:13;;;;;;;2.13;0.98;;;0.80;99.90;;;;;;4819283;29;20061;-57
2023/03/10 07:33:41;;;;;;;2.67;0.50;;;0.70;99.90;;;;;;4819827;29;20051;-55
2023/03/10 07:36:15;;;;;;;1.38;1.00;;;0.70;99.90;;;;;;4800814;29;20429;-57
2023/03/10 07:38:43;;;;;;;2.53;0.90;;;0.80;99.90;;;;;;4827022;29;20062;-55
2023/03/10 07:41:15;;;;;;;2.28;0.93;;;0.80;99.90;;;;;;4822858;29;20058;-56
2023/03/10 07:43:43;;;;;;;1.88;0.90;;;0.80;99.90;;;;;;4825938;29;20050;-56
2023/03/10 07:46:13;;;;;;;2.70;0.60;;;0.80;99.90;;;;;;4818953;29;20050;-56
2023/03/10 07:48:42;;;;;;;4.53;1.10;;;0.80;99.90;;;;;;4820605;29;20042;-58
2023/03/10 07:51:11;;;;;;;0.52;0.50;;;0.90;99.90;;;;;;4801159;29;20062;-56
2023/03/10 07:53:39;;;;;;;0.82;0.40;;;0.90;99.90;;;;;;4830372;29;20060;-57
2023/03/10 07:56:09;;;;;;;6.65;1.30;;;0.80;99.90;;;;;;4834014;29;20049;-57
2023/03/10 07:58:38;;;;;;;6.97;1.23;;;0.90;99.90;;;;;;4833926;29;20517;-56
2023/03/10 08:01:07;;;;;;;2.70;0.53;;;0.90;99.90;;;;;;4839803;29;20391;-55
2023/03/10 08:03:36;;;;;;;4.80;0.50;;;0.90;99.90;;;;;;4828348;29;20046;-56
2023/03/10 08:06:04;;;;;;;1.75;0.47;;;0.90;99.90;;;;;;4799504;29;20063;-56
2023/03/10 08:08:33;;;;;;;1.45;0.75;;;;;;;;;;4830684;29;20060;-56
2023/03/10 08:11:08;;;;;;;4.55;1.50;;;0.90;99.90;;;;;;4827073;29;20081;-57
2023/03/10 08:13:37;;;;;;;2.33;1.00;;;0.90;99.90;;;;;;4834547;29;20072;-56
2023/03/10 08:16:06;;;;;;;1.83;1.10;;;0.90;99.90;;;;;;4830453;29;20455;-56
2023/03/10 08:18:34;;;;;;;4.30;1.27;;;1.00;99.90;;;;;;4824728;29;20042;-57
2023/03/10 08:21:05;;;;;;;1.75;0.98;;;1.00;99.90;;;;;;4821331;29;20049;-57
2023/03/10 08:23:34;;;;;;;1.65;1.10;;;1.00;99.90;;;;;;4833547;29;20042;-56
2023/03/10 08:26:09;;;;;;;1.35;0.85;;;1.10;99.90;;;;;;4838429;29;20045;-56
2023/03/10 08:28:38;;;;;;;1.05;0.95;;;1.10;99.90;;;;;;4839828;29;20054;-57
2023/03/10 08:31:11;;;;;;;1.67;1.17;;;1.10;99.90;;;;;;4840120;29;20061;-55
2023/03/10 08:33:39;;;;;;;4.82;1.42;;;1.10;99.90;;;;;;4831622;29;20524;-56
2023/03/10 08:36:14;;;;;;;2.22;1.65;;;1.10;99.90;;;;;;4803075;29;20046;-56
2023/03/10 08:38:43;;;;;;;3.08;1.75;;;1.10;99.90;;;;;;4829061;29;20523;-57
2023/03/10 08:41:39;;;;;;;2.63;1.90;;;1.10;99.90;;;;;;4824884;29;20063;-54
2023/03/10 08:44:07;;;;;;;7.88;2.97;;;1.20;99.90;;;;;;4834840;29;20054;-55
2023/03/10 08:46:34;;;;;;;5.07;2.53;;;1.10;99.90;;;;;;4826537;29;20049;-56
2023/03/10 08:49:02;;;;;;;4.65;2.42;;;1.10;99.90;;;;;;4830655;29;20411;-55
2023/03/10 08:51:30;;;;;;;6.63;2.85;;;1.10;99.90;;;;;;4820089;29;20051;-56
2023/03/10 08:53:59;;;;;;;5.75;2.72;;;1.10;99.90;;;;;;4836072;29;20041;-55
2023/03/10 08:56:27;;;;;;;3.92;2.47;;;1.20;99.90;;;;;;4839139;29;20065;-56
2023/03/10 08:58:58;;;;;;;6.15;3.25;;;1.20;99.90;;;;;;4822261;29;20046;-56
2023/03/10 09:01:33;;;;;;;6.50;2.97;;;1.20;99.90;;;;;;4835861;29;20065;-56
2023/03/10 09:04:03;;;;;;;5.40;2.53;;;1.20;99.90;;;;;;4829186;29;20051;-56
2023/03/10 09:06:34;;;;;;;9.65;3.42;;;1.30;99.90;;;;;;4803089;29;20400;-56
2023/03/10 09:09:04;;;;;;;5.00;2.53;;;1.30;99.90;;;;;;4833873;29;20057;-56
2023/03/10 09:11:34;;;;;;;13.65;2.72;;;1.40;99.90;;;;;;4822115;29;20061;-56
2023/03/10 09:14:10;;;;;;;5.85;2.47;;;1.50;99.90;;;;;;4837029;29;20058;-56
2023/03/10 09:16:39;;;;;;;6.55;2.22;;;1.50;99.90;;;;;;4825079;29;20050;-57
2023/03/10 09:19:07;;;;;;;8.82;2.30;;;1.50;99.90;;;;;;4830394;29;20442;-57
2023/03/10 09:21:34;;;;;;;2.28;1.70;;;1.60;99.90;;;;;;4802225;29;20058;-57
2023/03/10 09:24:05;;;;;;;2.90;1.65;;;1.60;99.90;;;;;;4834829;29;20062;-57
2023/03/10 09:26:40;;;;;;;3.72;1.58;;;1.60;99.90;;;;;;4838816;29;20062;-57
2023/03/10 09:29:11;;;;;;;4.70;1.40;;;1.60;99.90;;;;;;4838412;29;20046;-58
2023/03/10 09:31:39;;;;;;;4.03;1.50;;;1.60;99.90;;;;;;4838420;29;20076;-58
2023/03/10 09:34:07;;;;;;;5.75;2.40;;;1.60;99.90;;;;;;4829344;29;20054;-56
2023/03/10 09:36:37;;;;;;;;;;;1.60;99.90;;;;;;4805619;29;20491;-57
2023/03/10 09:39:04;;;;;;;3.92;1.70;;;1.60;99.90;;;;;;4835354;29;19924;-57
2023/03/10 09:41:33;;;;;;;3.45;1.90;;;1.60;99.90;;;;;;4820674;29;20043;-57
2023/03/10 09:44:29;;;;;;;4.03;1.58;;;1.60;99.90;;;;;;4836177;29;20062;-56
2023/03/10 09:47:09;;;;;;;5.75;1.80;;;1.70;99.90;;;;;;4822410;29;20050;-57
2023/03/10 09:49:38;;;;;;;5.28;1.63;;;1.70;99.90;;;;;;4801745;29;20058;-59
2023/03/10 09:52:27;;;;;;;3.08;1.35;;;1.80;99.90;;;;;;4803211;29;20054;-57
2023/03/10 09:55:07;;;;;;;3.83;1.50;;;1.80;99.90;;;;;;4837916;29;20061;-57
2023/03/10 09:57:36;;;;;;;2.67;1.10;;;2.00;99.90;;;;;;4837717;29;20054;-57
2023/03/10 10:00:09;;;;;;;2.87;1.40;;;2.00;99.90;;;;;;4835156;29;20503;-56
2023/03/10 10:02:46;;;;;;;3.53;1.02;;;2.20;99.90;;;;;;4824668;29;20658;-58
2023/03/10 10:05:25;;;;;;;1.17;0.93;;;2.20;99.90;;;;;;4828201;29;20408;-56
2023/03/10 10:07:56;;;;;;;4.15;1.10;;;2.30;99.90;;;;;;4826074;29;20065;-57
2023/03/10 10:10:35;;;;;;;6.38;1.23;;;2.40;99.90;;;;;;4829836;29;20419;-56
2023/03/10 10:13:13;;;;;;;2.05;1.10;;;2.40;99.90;;;;;;4827087;29;20062;-57
2023/03/10 10:15:50;;;;;;;5.30;1.52;;;2.50;99.90;;;;;;4831369;29;20054;-58
2023/03/10 10:18:40;;;;;;;2.67;1.52;;;2.60;99.90;;;;;;4829253;29;20053;-56
2023/03/10 10:21:27;;;;;;;1.90;1.08;;;2.70;99.90;;;;;;4809917;29;20054;-57
2023/03/10 10:24:09;;;;;;;2.17;1.15;;;2.80;99.90;;;;;;4833824;29;20068;-57
2023/03/10 10:26:39;;;;;;;4.05;0.98;;;2.90;99.90;;;;;;4837875;29;20064;-58
2023/03/10 10:29:18;;;;;;;2.38;0.70;;;2.80;99.90;;;;;;4837556;29;20065;-58
2023/03/10 10:32:07;;;;;;;6.13;1.17;;;2.80;99.90;;;;;;4824362;29;20503;-56
2023/03/10 10:34:41;;;;;;;6.65;1.13;;;2.90;99.90;;;;;;4831354;29;20045;-55
2023/03/10 10:37:34;;;;;;;1.50;0.95;;;2.80;99.90;;;;;;4801697;29;20050;-58
2023/03/10 10:40:22;;;;;;;1.08;0.70;;;2.90;99.90;;;;;;4831768;29;20055;-57
2023/03/10 10:42:53;;;;;;;1.17;1.02;;;2.90;99.90;;;;;;4825664;29;20046;-57
2023/03/10 10:46:02;;;;;;;2.58;0.77;;;3.00;99.90;;;;;;4830093;29;20061;-58
2023/03/10 10:48:35;;;;;;;1.15;1.05;;;3.20;99.90;;;;;;4840412;29;20529;-57
2023/03/10 10:51:05;;;;;;;4.25;1.10;;;3.20;99.90;;;;;;4821519;29;20415;-55
2023/03/10 10:53:35;;;;;;;8.88;1.15;;;3.30;99.90;;;;;;4830655;29;20050;-57
2023/03/10 10:56:15;;;;;;;2.88;1.15;;;3.40;99.90;;;;;;4833982;29;20435;-57
2023/03/10 10:58:45;;;;;;;2.05;0.90;;;3.60;99.90;;;;;;4830456;29;20064;-57
2023/03/10 11:01:15;;;;;;;2.17;1.00;;;3.70;99.90;;;;;;4837480;29;20502;-57
2023/03/10 11:03:46;;;;;;;1.80;0.73;;;3.70;99.90;;;;;;4836369;29;20050;-57
2023/03/10 11:06:20;;;;;;;3.00;1.02;;;3.90;99.90;;;;;;4813473;29;20062;-57
2023/03/10 11:08:51;;;;;;;1.27;0.90;;;4.00;99.90;;;;;;4818795;29;20073;-57
2023/03/10 11:11:54;;;;;;;1.02;0.90;;;4.20;99.90;;;;;;4818944;29;20065;-56
2023/03/10 11:14:43;;;;;;;1.05;0.88;;;4.30;99.90;;;;;;4836499;29;20050;-56
2023/03/10 11:17:32;;;;;;;2.05;1.17;;;4.40;99.90;;;;;;4817529;29;20065;-57
2023/03/10 11:20:08;;;;;;;2.17;1.15;;;4.40;99.90;;;;;;4835055;29;20503;-56
2023/03/10 11:23:20;;;;;;;1.73;1.15;;;4.40;99.90;;;;;;4823459;29;20281;-59
2023/03/10 11:26:03;;;;;;;2.83;1.27;;;4.50;99.90;;;;;;4803988;29;20050;-56
2023/03/10 11:28:36;;;;;;;2.47;1.30;;;4.50;99.90;;;;;;4830825;29;20046;-58
2023/03/10 11:31:23;;;;;;;2.22;1.00;;;4.40;99.90;;;;;;4839332;29;20426;-55
2023/03/10 11:33:56;;;;;;;1.50;1.25;;;4.40;99.90;;;;;;4839980;29;20057;-56
2023/03/10 11:36:41;;;;;;;2.05;1.27;;;4.30;99.90;;;;;;4828097;29;20061;-56
2023/03/10 11:39:37;;;;;;;1.73;1.13;;;4.30;99.90;;;;;;4839251;29;20054;-57
2023/03/10 11:42:12;;;;;;;1.58;1.05;;;4.60;99.90;;;;;;4822546;29;20058;-56
2023/03/10 11:44:52;;;;;;;2.65;1.30;;;4.90;99.90;;;;;;4827297;29;20055;-57
2023/03/10 11:47:27;;;;;;;2.50;1.20;;;5.60;99.90;;;;;;4824141;29;20062;-57
2023/03/10 11:50:19;;;;;;;4.47;1.17;;;6.00;99.90;;;;;;4826012;29;20298;-56
2023/03/10 11:52:49;;;;;;;2.10;1.10;;;6.00;99.90;;;;;;4815232;29;20054;-56
2023/03/10 11:55:20;;;;;;;1.73;0.90;;;6.30;99.90;;;;;;4839085;29;20050;-56
2023/03/10 11:57:54;;;;;;;4.07;0.90;;;6.40;99.90;;;;;;4840097;29;20054;-56
2023/03/10 12:00:29;;;;;;;2.78;0.70;;;6.40;99.90;;;;;;4840377;29;20053;-56
2023/03/10 12:03:18;;;;;;;3.80;1.10;;;6.40;99.90;;;;;;4835822;29;20076;-56
2023/03/10 12:05:54;;;;;;;3.40;1.00;;;6.60;99.90;;;;;;4814667;29;20053;-57
2023/03/10 12:08:27;;;;;;;1.70;1.25;;;6.90;99.90;;;;;;4823282;29;20084;-57
2023/03/10 12:10:58;;;;;;;2.58;0.65;;;7.40;99.90;;;;;;4828142;29;20069;-57
2023/03/10 12:13:42;;;;;;;2.22;0.93;;;8.20;99.90;;;;;;4832027;29;20054;-56
2023/03/10 12:16:17;;;;;;;3.35;1.33;;;8.30;99.90;;;;;;4829650;29;20051;-57
2023/03/10 12:18:46;;;;;;;2.55;0.68;;;8.90;99.90;;;;;;4811771;29;20503;-56
2023/03/10 12:21:15;;;;;;;1.40;0.50;;;9.20;99.90;;;;;;4812038;29;20058;-57
2023/03/10 12:23:48;;;;;;;2.60;0.60;;;9.00;99.90;;;;;;4823927;29;20065;-57
2023/03/10 12:26:36;;;;;;;1.38;0.63;;;9.60;99.90;;;;;;4809883;29;20054;-57
2023/03/10 12:29:31;;;;;;;2.60;0.63;;;9.80;99.90;;;;;;4825818;29;20875;-56
2023/03/10 12:31:59;;;;;;;4.93;1.08;;;9.80;99.90;;;;;;4819594;29;20059;-56
2023/03/10 12:34:31;;;;;;;5.38;1.10;;;9.40;99.90;;;;;;4827615;29;20072;-56
2023/03/10 12:37:03;;;;;;;4.60;0.73;;;9.00;99.90;;;;;;4814907;29;20050;-56
2023/03/10 12:39:32;;;;;;;2.83;1.13;;;;;;;;;;4804526;29;20063;-56
2023/03/10 12:42:01;;;;;;;2.60;0.80;;;8.80;99.90;;;;;;4820998;29;20054;-56
2023/03/10 12:44:54;;;;;;;2.15;0.70;;;9.20;99.90;;;;;;4842921;29;20054;-56
2023/03/10 12:47:34;;;;;;;5.78;1.05;;;9.80;99.90;;;;;;4823047;29;20391;-57
2023/03/10 12:50:11;;;;;;;1.65;0.50;;;10.20;99.90;;;;;;4831018;29;20042;-57
2023/03/10 12:52:46;;;;;;;5.22;0.60;;;11.00;99.90;;;;;;4817742;29;20066;-59
2023/03/10 12:55:23;;;;;;;3.30;0.57;;;11.00;99.90;;;;;;4839470;29;20395;-58
2023/03/10 12:58:20;;;;;;;2.17;0.50;;;11.20;99.90;;;;;;4830648;29;20495;-59
2023/03/10 13:01:04;;;;;;;3.78;0.63;;;11.20;99.90;;;;;;4816539;29;20058;-55
2023/03/10 13:03:45;;;;;;;4.93;0.55;;;10.50;99.90;;;;;;4824252;29;20049;-57
2023/03/10 13:06:13;;;;;;;4.20;0.80;;;10.50;99.90;;;;;;4815465;29;20050;-57
2023/03/10 13:08:53;;;;;;;2.40;0.70;;;10.60;99.90;;;;;;4831491;29;20499;-57
2023/03/10 13:11:49;;;;;;;5.72;0.80;;;10.70;99.90;;;;;;4814520;29;20507;-57
2023/03/10 13:14:31;;;;;;;2.22;0.90;;;10.80;99.90;;;;;;4837146;29;20054;-57
2023/03/10 13:17:01;;;;;;;4.38;0.70;;;10.90;99.90;;;;;;4822628;29;20050;-58
2023/03/10 13:19:33;;;;;;;4.07;0.70;;;11.20;99.90;;;;;;4837064;29;20547;-56
2023/03/10 13:22:03;;;;;;;7.18;0.93;;;11.60;99.90;;;;;;4812869;29;20058;-57
2023/03/10 13:24:41;;;;;;;5.10;0.60;;;11.80;99.90;;;;;;4827545;29;20047;-57
2023/03/10 13:27:20;;;;;;;1.92;0.55;;;12.10;99.90;;;;;;4820722;29;20046;-57